Solgohachia, AR (72156)

12:04 PM CST on January 27, 2015 (GMT -0600)
Pigeon Roost Mountain | Change Station
CLOSE
Current Station
Personal Weather Station
Location: Hattieville, AR
Elevation: 725 ft
Nearby Weather Stations

Elev 725 ft 35.32 °N, 92.76 °W | Updated 2 minutes ago

Clear
Clear
62.8 °F
Feels Like 62.8 °F
N
2.7
Wind Variable Wind from ESE

Today
High -- | Low -- °F
--% Chance of Precip.
Yesterday
High -- | Low -- °F
Precip. -- in
7:13 AM 5:33 PM
First Quarter, 56% visible
Pressure 30.14 in
Visibility 10.0 miles
Clouds Clear
Dew Point 38 °F
Humidity 39%
Rainfall 0.00 in
Snow Depth Not available.
UV 4 out of 12
Pollen 5.20 out of 12
Air Quality Not available.
Flu Activity Not available.
METAR KRUE 271753Z AUTO VRB03KT 10SM CLR 16/01 A3015 RMK AO2 SLP205 T01610006 10167 21011 50001

More Conditions Fewer Conditions

Pressure 30.14 in
Visibility 10.0 miles
Clouds Clear
Dew Point 38 °F
Humidity 39%
Rainfall 0.00 in
Snow Depth Not available.
UV 4 out of 12
Pollen 5.20 out of 12
Air Quality Not available.
Flu Activity Not available.
METAR KRUE 271753Z AUTO VRB03KT 10SM CLR 16/01 A3015 RMK AO2 SLP205 T01610006 10167 21011 50001

More Conditions Fewer Conditions

10-Day Weather Forecast

Almanac

Astronomy

Jan. 27, 2015 Rise Set
Actual Time
Civil Twilight
Nautical Twilight
Astronomical Twilight
Moon
Length of Visible Light
Length of Day
Tomorrow will be .
, % of the Moon is Illuminated

Today's Extremes

State Highs State Lows

Community

WunderPhotos

Upload Photos

1,790,745 photos uploaded!

WunderBlogs® & News

Nearby

Air Quality

  Air Quality AQ Index Pollutant
Not available.

Snow Depth

Station Depth Elevation

Earthquake Activity

City Distance Mag. Time & Date
Minimum magnitude displayed is 2.5.

Coastal Water Temperatures

Place Temperature

Nearby Weather Stations